Time;durP1;ratioP1;P1;durP2;ratioP2;P2;SDS_P1;SDS_P2;PMS_P1;PMS_P2;Temp;Humidity;BMP_temperature;BMP_pressure;BME280_temperature;BME280_humidity;BME280_pressure;Samples;Min_cycle;Max_cycle;Signal;HPM_P1;HPM_P2
2023/12/22 00:02:07;;;;;;;6.83;0.80;;;10.50;99.90;;;;;;4863933;29;20244;-74
2023/12/22 00:04:34;;;;;;;7.30;1.83;;;10.50;99.90;;;;;;4863928;29;20274;-75
2023/12/22 00:07:01;;;;;;;5.47;0.90;;;10.50;99.90;;;;;;4864192;29;20223;-75
2023/12/22 00:09:28;;;;;;;4.73;0.60;;;10.50;99.90;;;;;;4863606;29;20251;-74
2023/12/22 00:11:57;;;;;;;1.90;0.50;;;10.50;99.90;;;;;;4878206;29;20212;-74
2023/12/22 00:14:24;;;;;;;6.57;0.80;;;10.40;99.90;;;;;;4863608;29;20303;-74
2023/12/22 00:16:51;;;;;;;4.20;0.60;;;10.40;99.90;;;;;;4863885;29;20215;-75
2023/12/22 00:19:18;;;;;;;2.63;0.50;;;10.40;99.90;;;;;;4863789;29;20208;-75
2023/12/22 00:21:45;;;;;;;9.77;1.87;;;10.40;99.90;;;;;;4863873;29;20223;-75
2023/12/22 00:24:12;;;;;;;2.93;0.50;;;10.40;99.90;;;;;;4863683;29;20219;-75
2023/12/22 00:26:39;;;;;;;1.07;0.50;;;10.40;99.90;;;;;;4863798;29;20216;-74
2023/12/22 00:29:07;;;;;;;7.37;0.90;;;10.40;99.90;;;;;;4863611;29;20250;-74
2023/12/22 00:31:34;;;;;;;5.93;0.67;;;10.40;99.90;;;;;;4863559;29;20752;-75
2023/12/22 00:34:02;;;;;;;5.23;0.40;;;10.40;99.90;;;;;;4863145;29;20216;-75
2023/12/22 00:36:29;;;;;;;6.50;0.50;;;10.30;99.90;;;;;;4863618;29;20703;-75
2023/12/22 00:38:56;;;;;;;4.37;0.40;;;10.40;99.90;;;;;;4863339;29;20215;-74
2023/12/22 00:41:23;;;;;;;4.00;0.40;;;10.30;99.90;;;;;;4863303;29;20295;-74
2023/12/22 00:43:50;;;;;;;3.30;0.50;;;10.20;99.90;;;;;;4863184;29;20220;-74
2023/12/22 00:46:19;;;;;;;5.87;0.97;;;10.20;99.90;;;;;;4862940;29;20243;-74
2023/12/22 00:48:46;;;;;;;3.63;0.50;;;10.10;99.90;;;;;;4862888;29;20262;-73
2023/12/22 00:51:13;;;;;;;5.43;1.07;;;9.90;99.90;;;;;;4862811;29;20216;-74
2023/12/22 00:53:40;;;;;;;4.17;0.93;;;9.80;99.90;;;;;;4863083;29;20239;-74
2023/12/22 00:56:07;;;;;;;4.33;0.67;;;9.70;99.90;;;;;;4862908;29;20576;-74
2023/12/22 00:58:35;;;;;;;2.63;0.60;;;9.60;99.90;;;;;;4863136;29;20211;-75
2023/12/22 01:01:02;;;;;;;5.30;0.80;;;9.60;99.90;;;;;;4863146;29;20694;-75
2023/12/22 01:03:30;;;;;;;3.20;0.90;;;9.60;99.90;;;;;;4862446;29;20616;-75
2023/12/22 01:05:57;;;;;;;7.47;1.30;;;9.60;99.90;;;;;;4863001;29;20231;-74
2023/12/22 01:08:24;;;;;;;5.13;0.93;;;9.60;99.90;;;;;;4862699;29;20592;-75
2023/12/22 01:10:51;;;;;;;7.60;1.00;;;9.60;99.90;;;;;;4863013;29;20215;-74
2023/12/22 01:13:18;;;;;;;3.90;0.70;;;9.60;99.90;;;;;;4862795;29;20311;-75
2023/12/22 01:15:46;;;;;;;5.27;0.70;;;9.60;99.90;;;;;;4862515;29;20310;-74
2023/12/22 01:18:13;;;;;;;4.27;0.90;;;9.60;99.90;;;;;;4862089;29;20232;-74
2023/12/22 01:20:41;;;;;;;6.10;0.70;;;9.70;99.90;;;;;;4862667;29;20212;-75
2023/12/22 01:23:08;;;;;;;3.50;0.83;;;9.70;99.90;;;;;;4862472;29;20254;-74
2023/12/22 01:25:35;;;;;;;6.27;1.20;;;9.70;99.90;;;;;;4862242;29;20320;-75
2023/12/22 01:28:02;;;;;;;4.77;0.73;;;9.60;99.90;;;;;;4862397;29;20250;-75
2023/12/22 01:30:29;;;;;;;3.43;0.50;;;9.60;99.90;;;;;;4862434;29;20243;-74
2023/12/22 01:32:56;;;;;;;4.17;1.07;;;9.70;99.90;;;;;;4863173;29;20215;-75
2023/12/22 01:35:23;;;;;;;6.33;1.10;;;9.70;99.90;;;;;;4862491;29;20288;-75
2023/12/22 01:37:52;;;;;;;7.03;0.70;;;9.80;99.90;;;;;;4862696;29;20236;-73
2023/12/22 01:40:19;;;;;;;3.90;0.80;;;9.80;99.90;;;;;;4861896;29;20727;-75
2023/12/22 01:42:46;;;;;;;7.13;1.07;;;9.80;99.90;;;;;;4862160;29;20663;-75
2023/12/22 01:45:13;;;;;;;6.53;1.20;;;9.70;99.90;;;;;;4862368;29;20267;-74
2023/12/22 01:47:40;;;;;;;3.47;0.90;;;9.80;99.90;;;;;;4862041;29;20742;-74
2023/12/22 01:50:10;;;;;;;4.57;1.07;;;9.80;99.90;;;;;;4862074;29;20711;-74
2023/12/22 01:52:37;;;;;;;5.73;0.80;;;9.80;99.90;;;;;;4862126;29;20588;-74
2023/12/22 01:55:07;;;;;;;4.97;1.00;;;9.90;99.90;;;;;;4861869;29;20243;-75
2023/12/22 01:57:35;;;;;;;4.33;0.63;;;9.90;99.90;;;;;;4861849;29;20755;-74
2023/12/22 02:00:04;;;;;;;9.90;0.80;;;9.90;99.90;;;;;;4861602;29;20212;-75
2023/12/22 02:02:31;;;;;;;2.67;0.63;;;9.90;99.90;;;;;;4862066;29;20212;-75
2023/12/22 02:04:59;;;;;;;4.07;0.73;;;9.90;99.90;;;;;;4861417;29;20297;-75
2023/12/22 02:07:26;;;;;;;5.90;1.07;;;9.80;99.90;;;;;;4861424;29;20216;-74
2023/12/22 02:09:53;;;;;;;7.17;0.73;;;9.90;99.90;;;;;;4861600;29;20633;-75
2023/12/22 02:12:21;;;;;;;4.13;2.47;;;9.90;99.90;;;;;;4861982;29;20220;-75
2023/12/22 02:14:49;;;;;;;3.87;0.63;;;9.90;99.90;;;;;;4861774;29;20722;-75
2023/12/22 02:17:24;;;;;;;6.53;0.87;;;9.90;99.90;;;;;;4861884;29;20223;-74
2023/12/22 02:19:52;;;;;;;5.53;1.20;;;9.90;99.90;;;;;;4861649;29;20587;-74
2023/12/22 02:22:19;;;;;;;4.90;1.00;;;9.90;99.90;;;;;;4861647;29;20223;-74
2023/12/22 02:24:47;;;;;;;2.93;0.70;;;9.80;99.90;;;;;;4861711;29;20319;-75
2023/12/22 02:27:26;;;;;;;5.87;1.70;;;9.80;99.90;;;;;;4861470;29;20676;-75
2023/12/22 02:29:58;;;;;;;2.53;0.60;;;9.80;99.90;;;;;;4861444;29;20433;-75
2023/12/22 02:32:33;;;;;;;6.67;0.77;;;9.80;99.90;;;;;;4861222;29;20294;-75
2023/12/22 02:35:05;;;;;;;8.80;1.27;;;9.70;99.90;;;;;;4861302;29;20223;-75
2023/12/22 02:37:33;;;;;;;6.13;0.70;;;9.80;99.90;;;;;;4861751;29;20243;-74
2023/12/22 02:40:03;;;;;;;6.83;1.53;;;9.80;99.90;;;;;;4861704;29;20216;-75
2023/12/22 02:42:32;;;;;;;3.60;0.80;;;9.80;99.90;;;;;;4861625;29;20235;-75
2023/12/22 02:44:59;;;;;;;5.73;0.70;;;9.80;99.90;;;;;;4861953;29;20315;-74
2023/12/22 02:47:27;;;;;;;8.00;0.73;;;9.70;99.90;;;;;;4861765;29;20579;-74
2023/12/22 02:49:55;;;;;;;10.37;0.90;;;9.80;99.90;;;;;;4861072;29;20247;-75
2023/12/22 02:52:22;;;;;;;8.47;1.93;;;9.90;99.90;;;;;;4861195;29;20557;-74
2023/12/22 02:54:49;;;;;;;4.57;1.03;;;9.90;99.90;;;;;;4860861;29;20326;-75
2023/12/22 02:57:17;;;;;;;2.17;0.70;;;9.90;99.90;;;;;;4861239;29;20212;-74
2023/12/22 02:59:44;;;;;;;4.77;0.53;;;10.00;99.90;;;;;;4861074;29;20211;-74
2023/12/22 03:02:12;;;;;;;3.83;0.40;;;10.00;99.90;;;;;;4861339;29;20212;-75
2023/12/22 03:04:39;;;;;;;1.97;0.67;;;9.90;99.90;;;;;;4861065;29;20267;-74
2023/12/22 03:07:06;;;;;;;4.47;0.60;;;9.90;99.90;;;;;;4861201;29;20572;-75
2023/12/22 03:09:34;;;;;;;3.40;0.50;;;9.90;99.90;;;;;;4860956;29;20247;-74
2023/12/22 03:12:02;;;;;;;4.20;0.53;;;9.90;99.90;;;;;;4860043;29;20216;-74
2023/12/22 03:14:32;;;;;;;4.43;0.57;;;9.80;99.90;;;;;;4860805;29;20295;-74
2023/12/22 03:16:59;;;;;;;2.30;0.70;;;9.90;99.90;;;;;;4860880;29;20216;-75
2023/12/22 03:19:26;;;;;;;2.50;0.50;;;9.90;99.90;;;;;;4860725;29;20215;-75
2023/12/22 03:21:53;;;;;;;4.57;0.80;;;9.90;99.90;;;;;;4860977;29;20252;-75
2023/12/22 03:24:22;;;;;;;4.17;0.50;;;9.80;99.90;;;;;;4861177;29;20223;-74
2023/12/22 03:26:49;;;;;;;6.87;1.00;;;9.80;99.90;;;;;;4861038;29;20298;-74
2023/12/22 03:29:17;;;;;;;5.63;0.63;;;9.70;99.90;;;;;;4860420;29;20235;-74
2023/12/22 03:31:45;;;;;;;5.83;0.70;;;9.70;99.90;;;;;;4860918;29;20668;-75
2023/12/22 03:34:12;;;;;;;4.43;1.00;;;9.70;99.90;;;;;;4860695;29;20216;-75
2023/12/22 03:36:39;;;;;;;4.80;0.50;;;9.70;99.90;;;;;;4860738;29;20208;-75
2023/12/22 03:39:06;;;;;;;4.43;0.53;;;9.60;99.90;;;;;;4860807;29;20632;-74
2023/12/22 03:41:34;;;;;;;7.37;1.00;;;9.70;99.90;;;;;;4860627;29;20272;-74
2023/12/22 03:44:01;;;;;;;6.93;2.30;;;9.70;99.90;;;;;;4860665;29;20212;-75
2023/12/22 03:46:28;;;;;;;5.53;0.67;;;9.60;99.90;;;;;;4860656;29;20228;-75
2023/12/22 03:48:57;;;;;;;4.93;0.80;;;9.60;99.90;;;;;;4860385;29;20714;-75
2023/12/22 03:51:24;;;;;;;7.30;0.63;;;9.60;99.90;;;;;;4860394;29;20208;-75
2023/12/22 03:53:51;;;;;;;9.90;1.40;;;9.60;99.90;;;;;;4860591;29;20220;-73
2023/12/22 03:56:18;;;;;;;8.83;1.00;;;9.60;99.90;;;;;;4860903;29;20246;-74
2023/12/22 03:58:45;;;;;;;8.97;1.07;;;9.60;99.90;;;;;;4860788;29;20344;-74
2023/12/22 04:01:15;;;;;;;4.53;0.90;;;9.60;99.90;;;;;;4860570;29;20294;-75
2023/12/22 04:03:42;;;;;;;3.37;1.27;;;9.60;99.90;;;;;;4860685;29;20269;-75
2023/12/22 04:06:11;;;;;;;10.77;0.97;;;9.60;99.90;;;;;;4860313;29;20235;-74
2023/12/22 04:08:38;;;;;;;3.83;1.00;;;9.50;99.90;;;;;;4860480;29;20235;-73
2023/12/22 04:11:05;;;;;;;4.37;0.50;;;9.50;99.90;;;;;;4860531;29;20239;-74
2023/12/22 04:13:32;;;;;;;7.07;0.90;;;9.40;99.90;;;;;;4860613;29;20233;-75
2023/12/22 04:15:59;;;;;;;1.33;0.40;;;9.30;99.90;;;;;;4860378;29;20247;-75
2023/12/22 04:18:26;;;;;;;3.43;0.60;;;9.30;99.90;;;;;;4860544;29;20216;-75
2023/12/22 04:20:55;;;;;;;7.07;0.87;;;9.20;99.90;;;;;;4860580;29;20223;-75
2023/12/22 04:23:23;;;;;;;7.13;0.80;;;9.10;99.90;;;;;;4862304;29;20576;-75
2023/12/22 04:25:50;;;;;;;5.57;0.80;;;9.10;99.90;;;;;;4863800;29;20284;-74
2023/12/22 04:28:17;;;;;;;6.60;0.93;;;9.00;99.90;;;;;;4863782;29;20212;-75
2023/12/22 04:30:44;;;;;;;4.63;0.50;;;8.90;99.90;;;;;;4863752;29;20243;-75
2023/12/22 04:33:11;;;;;;;2.00;0.40;;;8.80;99.90;;;;;;4863736;29;20217;-74
2023/12/22 04:35:38;;;;;;;4.27;1.00;;;8.80;99.90;;;;;;4863538;29;20243;-74
2023/12/22 04:38:05;;;;;;;3.63;0.90;;;8.70;99.90;;;;;;4863664;29;20211;-75
2023/12/22 04:40:34;;;;;;;5.60;0.90;;;8.80;99.90;;;;;;4863793;29;20212;-75
2023/12/22 04:43:01;;;;;;;6.47;0.60;;;8.90;99.90;;;;;;4863618;29;20222;-74
2023/12/22 04:45:28;;;;;;;6.70;0.97;;;8.90;99.90;;;;;;4863386;29;20296;-75
2023/12/22 04:47:55;;;;;;;10.77;0.93;;;8.90;99.90;;;;;;4863243;29;20219;-74
2023/12/22 04:50:22;;;;;;;5.57;1.03;;;8.80;99.90;;;;;;4863071;29;20330;-74
2023/12/22 04:52:49;;;;;;;7.37;0.90;;;8.80;99.90;;;;;;4863377;29;20264;-74
2023/12/22 04:55:16;;;;;;;5.63;0.90;;;8.70;99.90;;;;;;4863026;29;20327;-74
2023/12/22 04:57:44;;;;;;;5.50;1.17;;;8.80;99.90;;;;;;4863305;29;20265;-74
2023/12/22 05:00:12;;;;;;;6.30;1.03;;;8.80;99.90;;;;;;4863048;29;20684;-75
2023/12/22 05:02:39;;;;;;;8.27;0.80;;;8.80;99.90;;;;;;4862989;29;20302;-74
2023/12/22 05:05:08;;;;;;;8.23;1.00;;;8.80;99.90;;;;;;4863608;29;20292;-74
2023/12/22 05:07:35;;;;;;;4.97;1.73;;;8.90;99.90;;;;;;4863224;29;20212;-74
2023/12/22 05:10:02;;;;;;;8.07;1.00;;;8.90;99.90;;;;;;4863088;29;20243;-73
2023/12/22 05:12:29;;;;;;;8.70;1.17;;;8.90;99.90;;;;;;4862817;29;20223;-74
2023/12/22 05:14:58;;;;;;;7.57;1.53;;;8.90;99.90;;;;;;4862997;29;20228;-73
2023/12/22 05:17:25;;;;;;;4.53;0.90;;;8.90;99.90;;;;;;4862772;29;20216;-74
2023/12/22 05:19:52;;;;;;;9.90;1.47;;;9.00;99.90;;;;;;4862169;29;20215;-74
2023/12/22 05:22:19;;;;;;;6.10;1.00;;;9.00;99.90;;;;;;4862456;29;20208;-73
2023/12/22 05:24:46;;;;;;;9.07;1.00;;;9.00;99.90;;;;;;4862477;29;20632;-74
2023/12/22 05:27:14;;;;;;;4.47;0.73;;;9.00;99.90;;;;;;4862557;29;20243;-74
2023/12/22 05:29:40;;;;;;;10.33;1.17;;;9.10;99.90;;;;;;4862437;29;20212;-74
2023/12/22 05:32:09;;;;;;;7.07;0.90;;;9.10;99.90;;;;;;4862561;29;20699;-74
2023/12/22 05:34:37;;;;;;;8.03;1.33;;;9.20;99.90;;;;;;4861450;29;20715;-74
2023/12/22 05:37:04;;;;;;;9.53;1.60;;;9.30;99.90;;;;;;4862477;29;20299;-73
2023/12/22 05:39:31;;;;;;;6.43;1.30;;;9.30;99.90;;;;;;4862187;29;20690;-75
2023/12/22 05:41:58;;;;;;;6.50;0.90;;;9.40;99.90;;;;;;4862251;29;20216;-73
2023/12/22 05:44:29;;;;;;;7.17;0.83;;;9.40;99.90;;;;;;4862137;29;20696;-74
2023/12/22 05:46:56;;;;;;;10.53;1.20;;;9.40;99.90;;;;;;4862527;29;20579;-75
2023/12/22 05:49:25;;;;;;;12.23;1.53;;;9.50;99.90;;;;;;4862369;29;20227;-75
2023/12/22 05:51:52;;;;;;;6.60;1.03;;;9.50;99.90;;;;;;4862313;29;20243;-74
2023/12/22 05:54:20;;;;;;;14.33;1.20;;;9.60;99.90;;;;;;4862233;29;20216;-74
2023/12/22 05:56:47;;;;;;;8.33;1.33;;;9.60;99.90;;;;;;4861955;29;20220;-74
2023/12/22 05:59:14;;;;;;;15.67;2.20;;;9.60;99.90;;;;;;4862402;29;20211;-75
2023/12/22 06:01:41;;;;;;;7.20;1.13;;;9.60;99.90;;;;;;4862124;29;20676;-74
2023/12/22 06:04:08;;;;;;;8.43;1.20;;;9.60;99.90;;;;;;4861803;29;20675;-74
2023/12/22 06:06:38;;;;;;;10.87;1.47;;;9.60;99.90;;;;;;4861827;29;20236;-73
2023/12/22 06:09:05;;;;;;;13.83;2.17;;;9.60;99.90;;;;;;4861995;29;20652;-74
2023/12/22 06:11:32;;;;;;;8.40;1.10;;;9.60;99.90;;;;;;4861610;29;20243;-73
2023/12/22 06:13:59;;;;;;;8.40;1.83;;;9.60;99.90;;;;;;4861899;29;20216;-75
2023/12/22 06:16:26;;;;;;;12.47;1.30;;;9.60;99.90;;;;;;4861746;29;20771;-73
2023/12/22 06:18:53;;;;;;;8.57;1.10;;;9.70;99.90;;;;;;4861522;29;20552;-75
2023/12/22 06:21:20;;;;;;;6.10;1.07;;;9.70;99.90;;;;;;4861760;29;20580;-75
2023/12/22 06:23:49;;;;;;;7.13;1.33;;;9.70;99.90;;;;;;4861779;29;20268;-74
2023/12/22 06:26:16;;;;;;;2.53;0.60;;;9.80;99.90;;;;;;4861654;29;20239;-75
2023/12/22 06:28:43;;;;;;;6.60;1.93;;;9.70;99.90;;;;;;4861526;29;20268;-73
2023/12/22 06:31:19;;;;;;;4.47;0.60;;;9.80;99.90;;;;;;4861513;29;20723;-73
2023/12/22 06:33:46;;;;;;;6.60;0.80;;;9.80;99.90;;;;;;4861757;29;20302;-73
2023/12/22 06:36:19;;;;;;;8.13;0.93;;;9.70;99.90;;;;;;4861452;29;20755;-73
2023/12/22 06:38:48;;;;;;;8.47;0.77;;;9.70;99.90;;;;;;4861755;29;20485;-74
2023/12/22 06:41:22;;;;;;;6.10;0.77;;;9.70;99.90;;;;;;4861329;29;20291;-73
2023/12/22 06:43:50;;;;;;;6.33;1.03;;;9.70;99.90;;;;;;4861266;29;20660;-73
2023/12/22 06:46:18;;;;;;;5.90;0.80;;;9.70;99.90;;;;;;4861290;29;20240;-73
2023/12/22 06:48:45;;;;;;;6.43;1.00;;;9.70;99.90;;;;;;4861504;29;20243;-74
2023/12/22 06:51:19;;;;;;;6.23;0.70;;;9.60;99.90;;;;;;4861203;29;20271;-75
2023/12/22 06:53:47;;;;;;;5.00;0.80;;;9.60;99.90;;;;;;4861283;29;20267;-73
2023/12/22 06:56:18;;;;;;;4.93;1.23;;;9.60;99.90;;;;;;4861309;29;20243;-73
2023/12/22 06:58:47;;;;;;;4.53;0.53;;;9.60;99.90;;;;;;4861168;29;20591;-74
2023/12/22 07:01:19;;;;;;;6.97;0.60;;;9.60;99.90;;;;;;4861289;29;20212;-74
2023/12/22 07:03:47;;;;;;;7.67;0.73;;;9.60;99.90;;;;;;4861036;29;20219;-75
2023/12/22 07:06:15;;;;;;;4.37;0.57;;;9.60;99.90;;;;;;4860709;29;20695;-75
2023/12/22 07:08:42;;;;;;;2.23;0.53;;;9.70;99.90;;;;;;4861143;29;20207;-74
2023/12/22 07:11:11;;;;;;;2.93;0.53;;;9.70;99.90;;;;;;4861140;29;20296;-74
2023/12/22 07:13:38;;;;;;;1.93;0.70;;;9.70;99.90;;;;;;4861014;29;20215;-75
2023/12/22 07:16:06;;;;;;;4.77;0.57;;;9.70;99.90;;;;;;4860617;29;20240;-75
2023/12/22 07:18:33;;;;;;;2.57;0.60;;;9.80;99.90;;;;;;4861077;29;20216;-74
2023/12/22 07:21:01;;;;;;;3.40;0.53;;;9.70;99.90;;;;;;4861003;29;20262;-74
2023/12/22 07:23:28;;;;;;;4.90;0.60;;;9.70;99.90;;;;;;4860981;29;20296;-72
2023/12/22 07:25:55;;;;;;;2.60;0.60;;;9.70;99.90;;;;;;4860946;29;20240;-74
2023/12/22 07:28:23;;;;;;;4.03;0.50;;;9.70;99.90;;;;;;4860886;29;20303;-73
2023/12/22 07:30:50;;;;;;;3.13;0.60;;;9.80;99.90;;;;;;4860544;29;20259;-74
2023/12/22 07:33:17;;;;;;;2.57;0.70;;;9.80;99.90;;;;;;4860603;29;20580;-73
2023/12/22 07:35:44;;;;;;;3.43;0.30;;;9.80;99.90;;;;;;4860589;29;20326;-75
2023/12/22 07:38:12;;;;;;;1.87;0.40;;;9.80;99.90;;;;;;4860777;29;20222;-75
2023/12/22 07:40:39;;;;;;;1.50;0.50;;;9.80;99.90;;;;;;4860766;29;20216;-74
2023/12/22 07:43:06;;;;;;;1.60;0.40;;;9.90;99.90;;;;;;4860913;29;20211;-75
2023/12/22 07:45:34;;;;;;;4.07;0.50;;;9.90;99.90;;;;;;4860579;29;20236;-74
2023/12/22 07:48:01;;;;;;;3.83;0.80;;;9.90;99.90;;;;;;4860760;29;20224;-73
2023/12/22 07:50:28;;;;;;;5.17;0.90;;;10.00;99.90;;;;;;4860733;29;20216;-74
2023/12/22 07:52:55;;;;;;;2.77;0.60;;;9.90;99.90;;;;;;4860769;29;20281;-73
2023/12/22 07:55:22;;;;;;;2.20;0.60;;;9.90;99.90;;;;;;4860886;29;20600;-74
2023/12/22 07:57:50;;;;;;;2.23;1.27;;;9.90;99.90;;;;;;4861937;29;20216;-75
2023/12/22 08:00:17;;;;;;;2.67;0.60;;;9.90;99.90;;;;;;4864301;29;20271;-75
2023/12/22 08:02:46;;;;;;;2.00;0.40;;;9.80;99.90;;;;;;4864278;29;20226;-73
2023/12/22 08:05:15;;;;;;;2.60;0.50;;;9.90;99.90;;;;;;4864177;29;20263;-73
2023/12/22 08:07:42;;;;;;;1.27;0.50;;;9.90;99.90;;;;;;4864461;29;20814;-75
2023/12/22 08:10:10;;;;;;;1.60;0.30;;;9.90;99.90;;;;;;4863916;29;20215;-74
2023/12/22 08:12:37;;;;;;;5.13;1.47;;;9.90;99.90;;;;;;4864008;29;20236;-73
2023/12/22 08:15:05;;;;;;;0.87;0.27;;;9.90;99.90;;;;;;4864170;29;20280;-73
2023/12/22 08:17:33;;;;;;;4.97;0.60;;;9.90;99.90;;;;;;4864366;29;20216;-74
2023/12/22 08:20:01;;;;;;;0.60;0.40;;;9.90;99.90;;;;;;4864065;29;20212;-75
2023/12/22 08:22:28;;;;;;;1.13;0.30;;;9.90;99.90;;;;;;4870672;29;20214;-74
2023/12/22 08:24:55;;;;;;;0.50;0.30;;;9.90;99.90;;;;;;4875605;29;20242;-74
2023/12/22 08:27:22;;;;;;;1.43;0.50;;;9.90;99.90;;;;;;4881863;29;20211;-74
2023/12/22 08:29:49;;;;;;;0.93;0.43;;;10.00;99.90;;;;;;4882001;29;20215;-75
2023/12/22 08:32:16;;;;;;;5.87;0.50;;;9.90;99.90;;;;;;4881087;29;20244;-75
2023/12/22 08:34:43;;;;;;;2.70;0.50;;;9.90;99.90;;;;;;4881261;29;20269;-73
2023/12/22 08:37:11;;;;;;;1.07;0.50;;;9.80;99.90;;;;;;4882032;29;20218;-73
2023/12/22 08:39:38;;;;;;;0.67;0.33;;;9.80;99.90;;;;;;4881669;29;20206;-74
2023/12/22 08:42:05;;;;;;;0.57;0.43;;;9.80;99.90;;;;;;4881737;29;20250;-74
2023/12/22 08:44:32;;;;;;;1.40;0.50;;;9.70;99.90;;;;;;4878067;29;20210;-74
2023/12/22 08:46:59;;;;;;;1.30;0.50;;;9.70;99.90;;;;;;4870219;29;20295;-74
2023/12/22 08:49:26;;;;;;;1.53;0.50;;;9.80;99.90;;;;;;4879998;29;20215;-74
2023/12/22 08:51:53;;;;;;;1.10;0.60;;;9.80;99.90;;;;;;4875789;29;20232;-74
2023/12/22 08:54:22;;;;;;;3.87;1.00;;;9.90;99.90;;;;;;4870325;29;20204;-73
2023/12/22 08:56:49;;;;;;;0.93;0.70;;;9.90;99.90;;;;;;4875819;29;20211;-73
2023/12/22 08:59:16;;;;;;;1.07;0.70;;;9.90;99.90;;;;;;4881514;29;20223;-75
2023/12/22 09:01:43;;;;;;;1.33;0.80;;;9.90;99.90;;;;;;4881944;29;20237;-75
2023/12/22 09:04:11;;;;;;;1.83;0.77;;;10.00;99.90;;;;;;4881444;29;20207;-75
2023/12/22 09:06:39;;;;;;;3.53;1.00;;;10.00;99.90;;;;;;4881085;29;20258;-73
2023/12/22 09:09:07;;;;;;;1.50;0.77;;;10.00;99.90;;;;;;4880285;29;20540;-74
2023/12/22 09:11:36;;;;;;;1.17;0.67;;;10.00;99.90;;;;;;4881462;29;20274;-73
2023/12/22 09:14:03;;;;;;;2.70;0.70;;;10.00;99.90;;;;;;4881528;29;20211;-73
2023/12/22 09:16:30;;;;;;;1.77;0.67;;;10.10;99.90;;;;;;4880131;29;20235;-75
2023/12/22 09:18:57;;;;;;;1.27;0.80;;;10.20;99.90;;;;;;4870926;29;20315;-75
2023/12/22 09:21:24;;;;;;;7.40;0.90;;;10.20;99.90;;;;;;4870608;29;20230;-73
2023/12/22 09:23:51;;;;;;;1.77;0.90;;;10.30;99.90;;;;;;4872235;29;20204;-73
2023/12/22 09:26:18;;;;;;;2.00;0.63;;;10.30;99.90;;;;;;4871206;29;20534;-74
2023/12/22 09:28:47;;;;;;;1.53;0.83;;;10.30;99.90;;;;;;4869873;29;20351;-73
2023/12/22 09:31:14;;;;;;;6.37;1.00;;;10.30;99.90;;;;;;4866357;29;20725;-73
2023/12/22 09:33:42;;;;;;;1.50;0.60;;;10.30;99.90;;;;;;4873353;29;20652;-74
2023/12/22 09:36:10;;;;;;;3.17;0.90;;;10.40;99.90;;;;;;4880138;29;20231;-73
2023/12/22 09:38:37;;;;;;;1.47;0.50;;;10.30;99.90;;;;;;4880785;29;20199;-74
2023/12/22 09:41:04;;;;;;;1.77;0.93;;;10.30;99.90;;;;;;4880547;29;20563;-74
2023/12/22 09:43:35;;;;;;;1.67;0.70;;;10.40;99.90;;;;;;4880671;29;20691;-74
2023/12/22 09:46:05;;;;;;;2.33;0.60;;;10.40;99.90;;;;;;4878945;29;20262;-74
2023/12/22 09:48:35;;;;;;;3.93;0.60;;;10.40;99.90;;;;;;4872872;29;20230;-73
2023/12/22 09:51:04;;;;;;;0.97;0.57;;;10.40;99.90;;;;;;4868967;29;20207;-73
2023/12/22 09:53:32;;;;;;;3.53;0.57;;;10.40;99.90;;;;;;4891871;29;20623;-74
2023/12/22 09:56:00;;;;;;;3.87;0.50;;;10.50;99.90;;;;;;4899289;29;20313;-75
2023/12/22 09:58:27;;;;;;;2.67;0.70;;;10.40;99.90;;;;;;4898585;29;20289;-74
2023/12/22 10:00:56;;;;;;;2.50;0.70;;;10.50;99.90;;;;;;4878860;29;20214;-75
2023/12/22 10:03:27;;;;;;;0.83;0.50;;;10.50;99.90;;;;;;4872190;29;20638;-74
2023/12/22 10:05:54;;;;;;;1.70;0.50;;;10.60;99.90;;;;;;4880045;29;20292;-75
2023/12/22 10:08:21;;;;;;;3.37;0.60;;;10.60;99.90;;;;;;4880150;29;20207;-73
2023/12/22 10:10:52;;;;;;;0.83;0.40;;;10.70;99.90;;;;;;4879536;29;20372;-74
2023/12/22 10:13:19;;;;;;;1.10;0.37;;;10.70;99.90;;;;;;4879202;29;20698;-75
2023/12/22 10:15:47;;;;;;;2.83;0.40;;;10.70;99.90;;;;;;4871419;29;20255;-74
2023/12/22 10:18:15;;;;;;;2.40;1.13;;;10.60;99.90;;;;;;4876770;29;20280;-76
2023/12/22 10:20:45;;;;;;;1.57;0.47;;;10.60;99.90;;;;;;4878808;29;20259;-72
2023/12/22 10:23:12;;;;;;;1.37;0.40;;;10.70;99.90;;;;;;4879310;29;20218;-71
2023/12/22 10:25:41;;;;;;;1.53;0.57;;;10.80;99.90;;;;;;4879254;29;20326;-74
2023/12/22 10:28:13;;;;;;;1.87;0.70;;;10.80;99.90;;;;;;4886752;29;20270;-75
2023/12/22 10:30:41;;;;;;;1.13;0.60;;;10.80;99.90;;;;;;4889296;29;20294;-73
2023/12/22 10:33:08;;;;;;;1.80;0.47;;;10.90;99.90;;;;;;4880010;29;20231;-78
2023/12/22 10:35:35;;;;;;;1.30;0.50;;;10.90;99.90;;;;;;4879494;29;20231;-73
2023/12/22 10:38:05;;;;;;;1.50;0.60;;;11.00;99.90;;;;;;4878674;29;20597;-74
2023/12/22 10:40:32;;;;;;;1.93;0.47;;;11.00;99.90;;;;;;4879509;29;20207;-74
2023/12/22 10:43:01;;;;;;;2.13;0.53;;;11.10;99.90;;;;;;4879261;29;20203;-78
2023/12/22 10:45:30;;;;;;;2.63;0.53;;;11.10;99.90;;;;;;4871362;29;20224;-73
2023/12/22 10:47:59;;;;;;;2.77;0.60;;;11.00;99.90;;;;;;4874086;29;20219;-74
2023/12/22 10:50:26;;;;;;;3.53;0.70;;;10.90;99.90;;;;;;4879746;29;20578;-76
2023/12/22 10:52:53;;;;;;;2.70;0.70;;;10.90;99.90;;;;;;4879498;29;20240;-75
2023/12/22 10:55:22;;;;;;;1.43;0.70;;;10.80;99.90;;;;;;4879432;29;20231;-75
2023/12/22 10:57:49;;;;;;;1.70;0.43;;;10.80;99.90;;;;;;4879265;29;20673;-73
2023/12/22 11:00:17;;;;;;;1.67;0.50;;;10.80;99.90;;;;;;4880123;29;20218;-76
2023/12/22 11:02:49;;;;;;;0.83;0.57;;;10.80;99.90;;;;;;4879117;29;20207;-74
2023/12/22 11:05:19;;;;;;;2.60;0.57;;;10.70;99.90;;;;;;4879205;29;20237;-74
2023/12/22 11:07:50;;;;;;;1.43;0.50;;;10.70;99.90;;;;;;4879381;29;20221;-75
2023/12/22 11:10:21;;;;;;;0.57;0.40;;;10.70;99.90;;;;;;4878827;29;20207;-74
2023/12/22 11:12:51;;;;;;;2.33;0.50;;;10.60;99.90;;;;;;4878833;29;20239;-76
2023/12/22 11:15:19;;;;;;;1.40;0.37;;;10.60;99.90;;;;;;4878487;29;20239;-76
2023/12/22 11:17:49;;;;;;;1.17;0.40;;;10.60;99.90;;;;;;4874911;29;20211;-74
2023/12/22 11:20:17;;;;;;;1.00;0.50;;;10.60;99.90;;;;;;4876633;29;20207;-73
2023/12/22 11:22:45;;;;;;;1.67;0.40;;;10.60;99.90;;;;;;4877396;29;20208;-73
2023/12/22 11:25:15;;;;;;;1.53;0.40;;;10.60;99.90;;;;;;4877476;29;20266;-76
2023/12/22 11:27:44;;;;;;;1.63;0.40;;;10.60;99.90;;;;;;4877681;29;20694;-74
2023/12/22 11:30:14;;;;;;;1.70;0.50;;;10.60;99.90;;;;;;4877022;29;20674;-74
2023/12/22 11:32:45;;;;;;;0.90;0.40;;;10.60;99.90;;;;;;4875702;29;20243;-74
2023/12/22 11:35:13;;;;;;;2.20;0.40;;;10.60;99.90;;;;;;4877388;29;20231;-73
2023/12/22 11:37:42;;;;;;;2.80;0.80;;;10.70;99.90;;;;;;4876837;29;20207;-76
2023/12/22 11:40:09;;;;;;;1.23;0.20;;;10.60;99.90;;;;;;4877354;29;20222;-73
2023/12/22 11:42:42;;;;;;;0.60;0.40;;;10.70;99.90;;;;;;4877624;29;20354;-72
2023/12/22 11:45:15;;;;;;;1.17;0.30;;;10.70;99.90;;;;;;4877526;29;20242;-72
2023/12/22 11:47:42;;;;;;;0.53;0.30;;;10.70;99.90;;;;;;4876628;29;20208;-73
2023/12/22 11:50:11;;;;;;;2.43;0.87;;;10.70;99.90;;;;;;4876829;29;20215;-72
2023/12/22 11:52:39;;;;;;;1.00;0.30;;;10.80;99.90;;;;;;4877012;29;20245;-73
2023/12/22 11:55:06;;;;;;;1.97;0.40;;;10.80;99.90;;;;;;4874217;29;20276;-77
2023/12/22 11:57:35;;;;;;;1.37;0.40;;;10.80;99.90;;;;;;4880132;29;20215;-78
2023/12/22 12:00:07;;;;;;;1.33;0.50;;;10.80;99.90;;;;;;4878581;29;20687;-73
2023/12/22 12:02:37;;;;;;;1.37;0.83;;;10.90;99.90;;;;;;4878869;29;20211;-73
2023/12/22 12:05:05;;;;;;;0.80;0.50;;;10.90;99.90;;;;;;4877992;29;20227;-75
2023/12/22 12:07:44;;;;;;;1.33;0.40;;;10.80;99.90;;;;;;4878267;29;20215;-74
2023/12/22 12:10:12;;;;;;;2.40;0.30;;;10.90;99.90;;;;;;4878332;29;20250;-73
2023/12/22 12:12:39;;;;;;;0.77;0.57;;;10.80;99.90;;;;;;4878758;29;20243;-75
2023/12/22 12:15:13;;;;;;;1.80;0.30;;;10.80;99.90;;;;;;4875250;29;20231;-74
2023/12/22 12:17:43;;;;;;;0.97;0.40;;;10.80;99.90;;;;;;4876875;29;20270;-74
2023/12/22 12:20:11;;;;;;;1.37;0.33;;;10.90;99.90;;;;;;4878045;29;20211;-73
2023/12/22 12:22:40;;;;;;;1.30;0.50;;;10.90;99.90;;;;;;4878420;29;20219;-73
2023/12/22 12:25:11;;;;;;;1.13;0.60;;;10.80;99.90;;;;;;4877761;29;20239;-73
2023/12/22 12:27:39;;;;;;;0.87;0.40;;;10.70;99.90;;;;;;4877635;29;20254;-75
2023/12/22 12:30:14;;;;;;;3.83;1.07;;;10.80;99.90;;;;;;4878728;29;20207;-74
2023/12/22 12:32:45;;;;;;;0.50;0.27;;;10.90;99.90;;;;;;4859594;29;20305;-73
2023/12/22 12:35:14;;;;;;;0.70;0.30;;;10.90;99.90;;;;;;4860938;29;20268;-73
2023/12/22 12:37:43;;;;;;;0.97;0.20;;;11.00;99.90;;;;;;4869723;29;20208;-75
2023/12/22 12:40:12;;;;;;;1.70;0.40;;;11.10;99.90;;;;;;4869256;29;20215;-74
2023/12/22 12:42:39;;;;;;;3.67;0.70;;;11.10;99.90;;;;;;4869300;29;20212;-74
2023/12/22 12:45:08;;;;;;;1.90;0.43;;;11.10;99.90;;;;;;4871116;29;20220;-74
2023/12/22 12:47:36;;;;;;;1.43;0.40;;;11.10;99.90;;;;;;4873495;29;20666;-74
2023/12/22 12:50:04;;;;;;;1.83;0.30;;;11.00;99.90;;;;;;4873350;29;20207;-74
2023/12/22 12:52:32;;;;;;;0.50;0.30;;;11.00;99.90;;;;;;4882269;29;20235;-72
2023/12/22 12:55:00;;;;;;;2.43;0.40;;;11.00;99.90;;;;;;4872844;29;20698;-73
2023/12/22 12:57:28;;;;;;;1.43;0.50;;;11.10;99.90;;;;;;4876992;29;20303;-75